createdAt,value
2022-10-28T00:00:07.363Z,14.61
2022-10-28T00:02:14.787Z,14.60
2022-10-28T00:04:19.629Z,14.57
2022-10-28T00:06:26.430Z,14.56
2022-10-28T00:08:31.138Z,14.53
2022-10-28T00:10:35.968Z,14.53
2022-10-28T00:12:41.300Z,14.54
2022-10-28T00:14:46.811Z,14.55
2022-10-28T00:16:51.919Z,14.57
2022-10-28T00:19:01.809Z,14.61
2022-10-28T00:21:08.705Z,14.64
2022-10-28T00:23:13.440Z,14.70
2022-10-28T00:25:24.621Z,14.75
2022-10-28T00:27:29.958Z,14.81
2022-10-28T00:29:34.974Z,14.87
2022-10-28T00:31:41.160Z,14.91
2022-10-28T00:33:46.259Z,14.95
2022-10-28T00:35:53.319Z,14.94
2022-10-28T00:37:58.058Z,14.95
2022-10-28T00:40:02.908Z,14.98
2022-10-28T00:42:08.042Z,15.01
2022-10-28T00:44:27.589Z,14.97
2022-10-28T00:46:39.132Z,14.98
2022-10-28T00:48:46.208Z,15.00
2022-10-28T00:50:55.113Z,14.99
2022-10-28T00:53:06.597Z,14.97
2022-10-28T00:55:12.273Z,14.91
2022-10-28T00:57:21.653Z,14.92
2022-10-28T00:59:30.923Z,14.90
2022-10-28T01:01:36.249Z,14.89
2022-10-28T01:03:41.179Z,14.87
2022-10-28T01:05:49.253Z,14.86
2022-10-28T01:08:00.477Z,14.85
2022-10-28T01:10:05.313Z,14.84
2022-10-28T01:12:17.693Z,14.81
2022-10-28T01:14:40.506Z,14.80
2022-10-28T01:16:52.334Z,14.78
2022-10-28T01:19:11.087Z,14.77
2022-10-28T01:21:44.941Z,14.76
2022-10-28T01:24:10.293Z,14.75
2022-10-28T01:26:51.215Z,14.73
2022-10-28T01:29:17.000Z,14.69
2022-10-28T01:31:36.086Z,14.69
2022-10-28T01:33:47.801Z,14.68
2022-10-28T01:35:56.757Z,14.68
2022-10-28T01:38:19.112Z,14.69
2022-10-28T01:40:30.575Z,14.68
2022-10-28T01:42:42.069Z,14.64
2022-10-28T01:44:54.962Z,14.63
2022-10-28T01:47:11.448Z,14.59
2022-10-28T01:49:22.183Z,14.56
2022-10-28T01:51:32.788Z,14.53
2022-10-28T01:53:42.305Z,14.50
2022-10-28T01:55:51.659Z,14.50
2022-10-28T01:58:01.544Z,14.50
2022-10-28T02:00:07.973Z,14.52
2022-10-28T02:02:21.548Z,14.49
2022-10-28T02:04:26.368Z,14.47
2022-10-28T02:06:34.844Z,14.46
2022-10-28T02:08:53.972Z,14.48
2022-10-28T02:11:16.395Z,14.50
2022-10-28T02:13:23.920Z,14.48
2022-10-28T02:15:41.318Z,14.50
2022-10-28T02:17:58.488Z,14.50
2022-10-28T02:20:12.555Z,14.49
2022-10-28T02:22:24.396Z,14.47
2022-10-28T02:24:37.142Z,14.49
2022-10-28T02:26:48.633Z,14.49
2022-10-28T02:28:59.319Z,14.50
2022-10-28T02:31:10.400Z,14.51
2022-10-28T02:33:22.996Z,14.52
2022-10-28T02:35:34.292Z,14.50
2022-10-28T02:37:42.629Z,14.48
2022-10-28T02:39:51.946Z,14.43
2022-10-28T02:42:01.317Z,14.41
2022-10-28T02:44:12.921Z,14.42
2022-10-28T02:46:19.512Z,14.43
2022-10-28T02:48:31.648Z,14.44
2022-10-28T02:50:39.268Z,14.44
2022-10-28T02:52:47.851Z,14.45
2022-10-28T02:54:57.273Z,14.44
2022-10-28T02:57:06.223Z,14.41
2022-10-28T02:59:13.869Z,14.39
2022-10-28T03:01:18.915Z,14.37
2022-10-28T03:03:26.065Z,14.29
2022-10-28T03:05:30.863Z,14.27
2022-10-28T03:07:35.621Z,14.27
2022-10-28T03:09:40.462Z,14.25
2022-10-28T03:11:45.217Z,14.23
2022-10-28T03:13:49.978Z,14.18
2022-10-28T03:15:54.693Z,14.14
2022-10-28T03:17:59.458Z,14.12
2022-10-28T03:20:07.658Z,14.12
2022-10-28T03:22:12.393Z,14.10
2022-10-28T03:24:17.128Z,14.04
2022-10-28T03:26:21.918Z,14.02
2022-10-28T03:28:26.752Z,14.00
2022-10-28T03:30:31.573Z,13.99
2022-10-28T03:32:36.426Z,13.99
2022-10-28T03:34:41.223Z,13.98
2022-10-28T03:36:48.527Z,13.97
2022-10-28T03:38:53.370Z,13.97
2022-10-28T03:40:58.167Z,13.99
2022-10-28T03:43:03.041Z,14.01
2022-10-28T03:45:09.123Z,14.00
2022-10-28T03:47:13.908Z,13.99
2022-10-28T03:49:18.892Z,13.95
2022-10-28T03:51:23.675Z,13.94
2022-10-28T03:53:31.499Z,13.95
2022-10-28T03:55:36.513Z,13.96
2022-10-28T03:57:41.394Z,14.00
2022-10-28T03:59:46.240Z,14.03
2022-10-28T04:01:51.138Z,14.04
2022-10-28T04:03:55.975Z,14.04
2022-10-28T04:06:00.786Z,14.03
2022-10-28T04:08:05.569Z,14.02
2022-10-28T04:10:13.597Z,14.01
2022-10-28T04:12:18.519Z,14.03
2022-10-28T04:14:23.275Z,14.04
2022-10-28T04:16:28.082Z,14.03
2022-10-28T04:18:32.839Z,14.03
2022-10-28T04:20:38.003Z,14.03
2022-10-28T04:22:42.584Z,14.00
2022-10-28T04:24:47.348Z,14.01
2022-10-28T04:26:54.684Z,14.05
2022-10-28T04:28:59.565Z,14.09
2022-10-28T04:31:04.903Z,14.12
2022-10-28T04:33:09.821Z,14.15
2022-10-28T04:35:15.608Z,14.13
2022-10-28T04:37:20.749Z,14.12
2022-10-28T04:39:25.293Z,14.08
2022-10-28T04:41:30.463Z,14.04
2022-10-28T04:43:37.778Z,14.07
2022-10-28T04:45:42.549Z,14.07
2022-10-28T04:47:47.827Z,14.05
2022-10-28T04:49:52.865Z,14.08
2022-10-28T04:52:00.841Z,14.09
2022-10-28T04:54:05.791Z,14.08
2022-10-28T04:56:11.411Z,14.08
2022-10-28T04:58:16.126Z,14.09
2022-10-28T05:00:24.346Z,14.11
2022-10-28T05:02:29.358Z,14.12
2022-10-28T05:04:34.427Z,14.16
2022-10-28T05:06:39.353Z,14.14
2022-10-28T05:08:44.229Z,14.09
2022-10-28T05:10:51.213Z,14.08
2022-10-28T05:12:56.154Z,14.04
2022-10-28T05:15:00.909Z,13.99
2022-10-28T05:17:08.254Z,14.01
2022-10-28T05:19:13.011Z,14.04
2022-10-28T05:21:17.809Z,14.08
2022-10-28T05:23:24.754Z,14.10
2022-10-28T05:25:31.976Z,14.14
2022-10-28T05:27:36.820Z,14.17
2022-10-28T05:29:41.555Z,14.20
2022-10-28T05:31:46.372Z,14.22
2022-10-28T05:33:53.673Z,14.26
2022-10-28T05:35:58.606Z,14.30
2022-10-28T05:38:03.797Z,14.25
2022-10-28T05:40:08.848Z,14.19
2022-10-28T05:42:13.605Z,14.17
2022-10-28T05:44:18.512Z,14.19
2022-10-28T05:46:23.256Z,14.14
2022-10-28T05:48:28.226Z,14.16
2022-10-28T05:50:35.666Z,14.18
2022-10-28T05:52:40.401Z,14.17
2022-10-28T05:54:45.164Z,14.20
2022-10-28T05:56:49.932Z,14.23
2022-10-28T05:58:54.688Z,14.28
2022-10-28T06:00:59.489Z,14.35
2022-10-28T06:03:10.198Z,14.38
2022-10-28T06:05:15.481Z,14.45
2022-10-28T06:07:24.614Z,14.44
2022-10-28T06:09:31.009Z,14.38
2022-10-28T06:11:35.567Z,14.37
2022-10-28T06:13:40.476Z,14.38
2022-10-28T06:15:45.369Z,14.37
2022-10-28T06:17:50.359Z,14.39
2022-10-28T06:19:55.279Z,14.41
2022-10-28T06:22:00.056Z,14.47
2022-10-28T06:24:12.094Z,14.52
2022-10-28T06:26:17.123Z,14.56
2022-10-28T06:28:21.974Z,14.60
2022-10-28T06:30:28.276Z,14.62
2022-10-28T06:32:32.996Z,14.58
2022-10-28T06:34:38.246Z,14.61
2022-10-28T06:36:42.770Z,14.60
2022-10-28T06:38:47.579Z,14.60
2022-10-28T06:40:54.985Z,14.64
2022-10-28T06:43:00.787Z,14.69
2022-10-28T06:45:06.598Z,14.68
2022-10-28T06:47:13.111Z,14.70
2022-10-28T06:49:17.936Z,14.74
2022-10-28T06:51:22.706Z,14.78
2022-10-28T06:53:27.785Z,14.81
2022-10-28T06:55:32.607Z,14.81
2022-10-28T06:57:39.907Z,14.83
2022-10-28T06:59:44.923Z,14.82
2022-10-28T07:01:49.722Z,14.85
2022-10-28T07:03:54.557Z,14.87
2022-10-28T07:05:59.462Z,14.82
2022-10-28T07:08:04.249Z,14.79
2022-10-28T07:10:09.608Z,14.84
2022-10-28T07:12:14.496Z,14.92
2022-10-28T07:14:21.823Z,15.02
2022-10-28T07:16:26.856Z,15.07
2022-10-28T07:18:32.644Z,15.12
2022-10-28T07:20:37.418Z,15.10
2022-10-28T07:22:42.208Z,14.92
2022-10-28T07:24:47.104Z,14.86
2022-10-28T07:26:54.287Z,14.77
2022-10-28T07:29:01.957Z,14.61
2022-10-28T07:33:13.968Z,14.54
2022-10-28T07:35:18.950Z,14.22
2022-10-28T07:37:23.984Z,14.05
2022-10-28T07:39:28.879Z,14.22
2022-10-28T07:41:33.698Z,14.39
2022-10-28T07:43:40.021Z,14.58
2022-10-28T07:45:44.756Z,14.72
2022-10-28T07:47:52.099Z,14.86
2022-10-28T07:49:57.108Z,14.93
2022-10-28T07:52:01.805Z,15.06
2022-10-28T07:54:06.907Z,15.05
2022-10-28T07:56:13.854Z,15.04
2022-10-28T07:58:18.610Z,15.16
2022-10-28T08:00:23.473Z,15.28
2022-10-28T08:02:28.928Z,15.41
2022-10-28T08:04:36.259Z,15.57
2022-10-28T08:06:41.053Z,15.63
2022-10-28T08:08:46.971Z,15.74
2022-10-28T08:10:51.678Z,15.88
2022-10-28T08:12:59.598Z,15.95
2022-10-28T08:15:04.481Z,16.00
2022-10-28T08:17:09.552Z,16.06
2022-10-28T08:19:14.433Z,16.09
2022-10-28T08:21:21.880Z,16.14
2022-10-28T08:23:26.751Z,16.13
2022-10-28T08:25:31.498Z,16.16
2022-10-28T08:27:36.407Z,16.18
2022-10-28T08:29:41.173Z,16.21
2022-10-28T08:31:45.917Z,16.22
2022-10-28T08:33:50.777Z,16.14
2022-10-28T08:35:55.577Z,16.16
2022-10-28T08:38:02.970Z,16.13
2022-10-28T08:40:09.931Z,16.09
2022-10-28T08:42:39.591Z,16.06
2022-10-28T08:45:06.743Z,16.06
2022-10-28T08:47:21.782Z,16.02
2022-10-28T08:49:27.512Z,15.99
2022-10-28T08:51:39.791Z,15.99
2022-10-28T08:53:51.427Z,16.03
2022-10-28T08:55:59.072Z,16.08
2022-10-28T08:58:10.883Z,16.14
2022-10-28T09:00:23.799Z,16.21
2022-10-28T09:02:33.968Z,16.26
2022-10-28T09:04:41.845Z,16.31
2022-10-28T09:06:46.669Z,16.33
2022-10-28T09:08:54.047Z,16.40
2022-10-28T09:11:28.450Z,16.51
2022-10-28T09:13:41.912Z,16.65
2022-10-28T09:15:57.898Z,16.81
2022-10-28T09:18:14.444Z,16.95
2022-10-28T09:20:22.210Z,17.04
2022-10-28T09:22:29.474Z,17.06
2022-10-28T09:24:48.833Z,17.15
2022-10-28T09:27:01.781Z,17.23
2022-10-28T09:29:20.270Z,17.30
2022-10-28T09:31:35.803Z,17.37
2022-10-28T09:33:51.812Z,17.41
2022-10-28T09:35:59.169Z,17.49
2022-10-28T09:38:16.025Z,17.56
2022-10-28T09:40:27.193Z,17.65
2022-10-28T09:44:49.743Z,17.85
2022-10-28T09:46:58.136Z,17.94
2022-10-28T09:49:07.640Z,17.95
2022-10-28T09:51:25.338Z,18.05
2022-10-28T09:53:39.115Z,18.10
2022-10-28T09:55:46.705Z,18.21
2022-10-28T09:57:51.870Z,18.27
2022-10-28T09:59:57.065Z,18.40
2022-10-28T10:02:02.045Z,18.47
2022-10-28T10:04:18.818Z,18.60
2022-10-28T10:06:29.931Z,18.66
2022-10-28T10:08:36.425Z,18.68
2022-10-28T10:10:50.591Z,18.75
2022-10-28T10:12:59.593Z,18.81
2022-10-28T10:15:08.440Z,18.88
2022-10-28T10:17:18.178Z,18.92
2022-10-28T10:19:23.157Z,19.00
2022-10-28T10:21:45.039Z,19.05
2022-10-28T10:23:49.867Z,19.09
2022-10-28T10:26:06.722Z,19.18
2022-10-28T10:28:18.991Z,19.29
2022-10-28T10:30:26.913Z,19.37
2022-10-28T10:32:34.492Z,19.47
2022-10-28T10:34:39.432Z,19.60
2022-10-28T10:36:52.506Z,19.73
2022-10-28T10:38:59.317Z,19.84
2022-10-28T10:41:07.093Z,19.97
2022-10-28T10:43:24.954Z,20.13
2022-10-28T10:45:30.966Z,20.23
2022-10-28T10:47:35.712Z,20.32
2022-10-28T10:49:40.587Z,20.37
2022-10-28T10:51:54.750Z,20.40
2022-10-28T10:54:01.892Z,20.41
2022-10-28T10:56:13.243Z,20.38
2022-10-28T10:58:21.436Z,20.47
2022-10-28T11:00:31.133Z,20.46
2022-10-28T11:02:40.071Z,20.50
2022-10-28T11:04:53.895Z,20.63
2022-10-28T11:07:00.596Z,20.72
2022-10-28T11:09:08.279Z,20.87
2022-10-28T11:11:21.466Z,20.98
2022-10-28T11:13:29.908Z,21.09
2022-10-28T11:15:35.762Z,21.13
2022-10-28T11:17:40.576Z,21.22
2022-10-28T11:19:45.716Z,21.25
2022-10-28T11:22:00.026Z,21.31
2022-10-28T11:24:24.404Z,21.34
2022-10-28T11:26:35.304Z,21.34
2022-10-28T11:29:10.445Z,21.41
2022-10-28T11:31:34.905Z,21.47
2022-10-28T11:33:47.111Z,21.48
2022-10-28T11:36:05.440Z,21.54
2022-10-28T11:38:22.710Z,21.59
2022-10-28T11:40:37.239Z,21.61
2022-10-28T11:42:52.534Z,21.73
2022-10-28T11:45:07.258Z,21.83
2022-10-28T11:47:28.144Z,21.90
2022-10-28T11:49:49.824Z,21.95
2022-10-28T11:52:03.466Z,21.99
2022-10-28T11:54:38.144Z,22.00
2022-10-28T11:56:50.444Z,21.98
2022-10-28T11:59:11.706Z,22.02
2022-10-28T12:01:40.046Z,21.92
2022-10-28T12:04:09.420Z,21.93
2022-10-28T12:06:21.255Z,22.01
2022-10-28T12:08:39.836Z,22.04
2022-10-28T12:10:56.866Z,22.10
2022-10-28T12:13:11.206Z,22.14
2022-10-28T12:15:25.227Z,22.15
2022-10-28T12:17:38.489Z,22.14
2022-10-28T12:19:49.519Z,22.15
2022-10-28T12:22:02.765Z,22.13
2022-10-28T12:24:15.016Z,22.09
2022-10-28T12:26:22.763Z,22.09
2022-10-28T12:28:33.139Z,22.13
2022-10-28T12:30:44.671Z,22.17
2022-10-28T12:32:54.017Z,22.15
2022-10-28T12:35:04.225Z,22.18
2022-10-28T12:37:13.105Z,22.15
2022-10-28T12:39:24.135Z,22.18
2022-10-28T12:41:30.545Z,22.15
2022-10-28T12:43:41.072Z,22.15
2022-10-28T12:45:51.220Z,22.14
2022-10-28T12:48:02.869Z,22.14
2022-10-28T12:50:16.517Z,22.20
2022-10-28T12:52:30.650Z,22.22
2022-10-28T12:54:43.540Z,22.21
2022-10-28T12:56:53.248Z,22.19
2022-10-28T13:01:16.502Z,22.21
2022-10-28T13:03:21.351Z,22.26
2022-10-28T13:05:29.125Z,22.30
2022-10-28T13:07:57.696Z,22.34
2022-10-28T13:10:14.274Z,22.36
2022-10-28T13:12:39.765Z,22.30
2022-10-28T13:15:10.655Z,22.36
2022-10-28T13:17:30.447Z,22.41
2022-10-28T13:19:52.275Z,22.41
2022-10-28T13:22:32.261Z,22.46
2022-10-28T13:24:46.270Z,22.51
2022-10-28T13:26:51.911Z,22.50
2022-10-28T13:28:59.720Z,22.48
2022-10-28T13:31:07.030Z,22.47
2022-10-28T13:33:28.036Z,22.46
2022-10-28T13:35:33.809Z,22.42
2022-10-28T13:37:39.676Z,22.36
2022-10-28T13:39:47.081Z,22.36
2022-10-28T13:41:51.867Z,22.34
2022-10-28T13:44:25.590Z,22.30
2022-10-28T13:47:00.406Z,22.26
2022-10-28T13:49:27.668Z,22.24
2022-10-28T13:51:37.311Z,22.24
2022-10-28T13:53:47.528Z,22.25
2022-10-28T13:55:52.425Z,22.22
2022-10-28T13:58:03.557Z,22.18
2022-10-28T14:00:30.201Z,22.15
2022-10-28T14:02:42.411Z,22.16
2022-10-28T14:04:57.866Z,22.14
2022-10-28T14:07:05.284Z,22.12
2022-10-28T14:09:23.455Z,22.11
2022-10-28T14:11:32.577Z,22.06
2022-10-28T14:13:40.044Z,22.04
2022-10-28T14:15:46.110Z,22.00
2022-10-28T14:18:04.952Z,22.00
2022-10-28T14:20:29.763Z,21.96
2022-10-28T14:22:37.498Z,21.88
2022-10-28T14:24:44.901Z,21.84
2022-10-28T14:27:28.371Z,21.80
2022-10-28T14:29:33.588Z,21.75
2022-10-28T14:31:45.180Z,21.67
2022-10-28T14:34:27.536Z,21.67
2022-10-28T14:36:44.076Z,21.63
2022-10-28T14:39:06.424Z,21.63
2022-10-28T14:41:22.859Z,21.61
2022-10-28T14:43:56.491Z,21.58
2022-10-28T14:46:16.114Z,21.55
2022-10-28T14:48:51.880Z,21.52
2022-10-28T14:51:00.182Z,21.45
2022-10-28T14:53:08.662Z,21.42
2022-10-28T14:55:24.936Z,21.37
2022-10-28T14:57:33.840Z,21.30
2022-10-28T14:59:42.969Z,21.28
2022-10-28T15:02:01.865Z,21.23
2022-10-28T15:04:13.850Z,21.17
2022-10-28T15:06:46.011Z,21.12
2022-10-28T15:08:50.859Z,21.03
2022-10-28T15:10:55.736Z,20.99
2022-10-28T15:13:01.680Z,20.96
2022-10-28T15:15:18.369Z,20.89
2022-10-28T15:17:25.265Z,20.83
2022-10-28T15:19:31.865Z,20.80
2022-10-28T15:21:36.649Z,20.75
2022-10-28T15:23:47.245Z,20.70
2022-10-28T15:26:10.562Z,20.64
2022-10-28T15:28:16.180Z,20.60
2022-10-28T15:30:23.827Z,20.57
2022-10-28T15:32:33.838Z,20.50
2022-10-28T15:34:38.632Z,20.49
2022-10-28T15:36:43.455Z,20.47
2022-10-28T15:38:52.146Z,20.46
2022-10-28T15:40:57.311Z,20.46
2022-10-28T15:43:04.032Z,20.46
2022-10-28T15:45:18.359Z,20.48
2022-10-28T15:47:31.352Z,20.49
2022-10-28T15:49:40.792Z,20.50
2022-10-28T15:51:45.535Z,20.49
2022-10-28T15:53:55.305Z,20.46
2022-10-28T15:56:24.979Z,20.47
2022-10-28T15:58:38.403Z,20.44
2022-10-28T16:00:55.149Z,20.42
2022-10-28T16:03:02.300Z,20.43
2022-10-28T16:05:08.407Z,20.42
2022-10-28T16:07:13.312Z,20.41
2022-10-28T16:09:27.865Z,20.41
2022-10-28T16:11:33.862Z,20.34
2022-10-28T16:13:41.990Z,20.33
2022-10-28T16:15:50.739Z,20.32
2022-10-28T16:17:56.068Z,20.30
2022-10-28T16:20:04.626Z,20.30
2022-10-28T16:22:12.941Z,20.30
2022-10-28T16:24:17.717Z,20.26
2022-10-28T16:26:25.025Z,20.23
2022-10-28T16:28:30.946Z,20.17
2022-10-28T16:30:35.759Z,20.15
2022-10-28T16:32:42.427Z,20.13
2022-10-28T16:34:47.277Z,20.09
2022-10-28T16:36:52.042Z,20.05
2022-10-28T16:38:56.839Z,20.05
2022-10-28T16:41:02.776Z,20.05
2022-10-28T16:43:18.015Z,20.06
2022-10-28T16:45:22.731Z,20.02
2022-10-28T16:47:29.195Z,20.01
2022-10-28T16:49:33.944Z,20.01
2022-10-28T16:51:39.945Z,19.99
2022-10-28T16:53:47.575Z,19.98
2022-10-28T16:55:54.207Z,19.99
2022-10-28T16:57:59.113Z,19.98
2022-10-28T17:00:07.576Z,20.00
2022-10-28T17:02:18.148Z,19.96
2022-10-28T17:04:23.005Z,19.92
2022-10-28T17:06:28.002Z,19.89
2022-10-28T17:09:00.748Z,19.85
2022-10-28T17:10:57.452Z,19.83
2022-10-28T17:13:03.137Z,19.81
2022-10-28T17:15:12.025Z,19.78
2022-10-28T17:17:16.782Z,19.74
2022-10-28T17:19:21.563Z,19.73
2022-10-28T17:21:26.307Z,19.74
2022-10-28T17:23:31.443Z,19.71
2022-10-28T17:25:35.963Z,19.61
2022-10-28T17:27:40.825Z,19.59
2022-10-28T17:29:45.581Z,19.57
2022-10-28T17:31:52.929Z,19.55
2022-10-28T17:33:57.978Z,19.53
2022-10-28T17:36:03.477Z,19.44
2022-10-28T17:38:08.175Z,19.44
2022-10-28T17:40:13.603Z,19.41
2022-10-28T17:42:18.351Z,19.37
2022-10-28T17:44:23.189Z,19.34
2022-10-28T17:46:27.919Z,19.34
2022-10-28T17:48:35.908Z,19.33
2022-10-28T17:50:40.656Z,19.33
2022-10-28T17:52:45.495Z,19.33
2022-10-28T17:54:50.323Z,19.31
2022-10-28T17:56:55.058Z,19.25
2022-10-28T17:58:59.959Z,19.21
2022-10-28T18:01:06.794Z,19.16
2022-10-28T18:03:12.882Z,19.17
2022-10-28T18:05:20.236Z,19.20
2022-10-28T18:07:26.743Z,19.23
2022-10-28T18:09:32.082Z,19.30
2022-10-28T18:11:37.719Z,19.32
2022-10-28T18:13:45.083Z,19.35
2022-10-28T18:15:49.908Z,19.35
2022-10-28T18:17:54.635Z,19.32
2022-10-28T18:20:01.960Z,19.31
2022-10-28T18:22:09.412Z,19.32
2022-10-28T18:24:14.229Z,19.34
2022-10-28T18:26:19.200Z,19.35
2022-10-28T18:28:23.954Z,19.37
2022-10-28T18:30:28.788Z,19.39
2022-10-28T18:32:33.561Z,19.39
2022-10-28T18:34:38.431Z,19.38
2022-10-28T18:36:43.331Z,19.36
2022-10-28T18:38:51.650Z,19.36
2022-10-28T18:40:56.884Z,19.34
2022-10-28T18:43:01.636Z,19.34
2022-10-28T18:45:06.966Z,19.31
2022-10-28T18:47:11.797Z,19.30
2022-10-28T18:49:16.552Z,19.26
2022-10-28T18:51:21.510Z,19.25
2022-10-28T18:53:26.315Z,19.22
2022-10-28T18:55:33.695Z,19.20
2022-10-28T18:57:38.754Z,19.18
2022-10-28T19:00:12.453Z,19.18
2022-10-28T19:02:08.448Z,19.16
2022-10-28T19:04:13.289Z,19.16
2022-10-28T19:06:19.268Z,19.16
2022-10-28T19:08:24.034Z,19.16
2022-10-28T19:10:28.831Z,19.11
2022-10-28T19:12:40.866Z,19.10
2022-10-28T19:14:49.029Z,19.08
2022-10-28T19:16:53.770Z,19.09
2022-10-28T19:18:59.079Z,19.10
2022-10-28T19:21:04.378Z,19.06
2022-10-28T19:23:09.291Z,19.05
2022-10-28T19:25:14.147Z,19.06
2022-10-28T19:27:18.885Z,19.05
2022-10-28T19:29:26.274Z,19.06
2022-10-28T19:31:31.226Z,19.04
2022-10-28T19:33:38.315Z,19.01
2022-10-28T19:35:43.121Z,19.00
2022-10-28T19:37:47.916Z,18.97
2022-10-28T19:39:56.437Z,18.94
2022-10-28T19:42:01.620Z,18.93
2022-10-28T19:44:07.335Z,18.92
2022-10-28T19:46:16.987Z,18.91
2022-10-28T19:48:21.698Z,18.88
2022-10-28T19:50:26.553Z,18.88
2022-10-28T19:52:31.279Z,18.85
2022-10-28T19:54:36.158Z,18.81
2022-10-28T19:56:42.786Z,18.81
2022-10-28T19:58:49.629Z,18.82
2022-10-28T20:01:00.010Z,18.86
2022-10-28T20:03:07.502Z,18.88
2022-10-28T20:05:12.423Z,18.89
2022-10-28T20:07:17.377Z,18.91
2022-10-28T20:09:26.364Z,18.83
2022-10-28T20:11:37.759Z,18.78
2022-10-28T20:13:43.266Z,18.78
2022-10-28T20:15:48.127Z,18.78
2022-10-28T20:17:52.887Z,18.81
2022-10-28T20:20:00.246Z,18.82
2022-10-28T20:22:04.968Z,18.83
2022-10-28T20:24:10.776Z,18.84
2022-10-28T20:26:16.430Z,18.84
2022-10-28T20:28:21.645Z,18.83
2022-10-28T20:30:26.565Z,18.79
2022-10-28T20:32:31.400Z,18.76
2022-10-28T20:34:36.274Z,18.73
2022-10-28T20:36:46.716Z,18.71
2022-10-28T20:38:57.941Z,18.67
2022-10-28T20:41:03.712Z,18.66
2022-10-28T20:43:08.570Z,18.62
2022-10-28T20:45:13.794Z,18.55
2022-10-28T20:47:18.468Z,18.45
2022-10-28T20:49:23.275Z,18.41
2022-10-28T20:51:29.194Z,18.37
2022-10-28T20:53:38.980Z,18.34
2022-10-28T20:55:47.781Z,18.28
2022-10-28T20:57:52.588Z,18.22
2022-10-28T20:59:57.779Z,18.18
2022-10-28T21:02:02.717Z,18.15
2022-10-28T21:04:08.698Z,18.06
2022-10-28T21:06:15.384Z,18.01
2022-10-28T21:08:20.455Z,17.97
2022-10-28T21:10:27.873Z,17.92
2022-10-28T21:12:32.584Z,17.84
2022-10-28T21:14:37.366Z,17.83
2022-10-28T21:16:42.057Z,17.81
2022-10-28T21:18:46.868Z,17.77
2022-10-28T21:20:51.628Z,17.74
2022-10-28T21:22:56.744Z,17.70
2022-10-28T21:25:02.201Z,17.68
2022-10-28T21:27:09.533Z,17.66
2022-10-28T21:29:14.258Z,17.63
2022-10-28T21:31:19.925Z,17.61
2022-10-28T21:33:24.694Z,17.58
2022-10-28T21:35:29.487Z,17.59
2022-10-28T21:37:34.644Z,17.57
2022-10-28T21:39:39.883Z,17.56
2022-10-28T21:41:44.361Z,17.47
2022-10-28T21:43:53.618Z,17.47
2022-10-28T21:45:58.776Z,17.48
2022-10-28T21:48:03.287Z,17.42
2022-10-28T21:50:08.549Z,17.40
2022-10-28T21:52:13.179Z,17.32
2022-10-28T21:54:18.817Z,17.29
2022-10-28T21:56:23.808Z,17.28
2022-10-28T21:58:28.542Z,17.28
2022-10-28T22:00:35.864Z,17.26
2022-10-28T22:02:40.877Z,17.22
2022-10-28T22:04:45.499Z,17.15
2022-10-28T22:06:50.251Z,17.12
2022-10-28T22:08:55.437Z,17.10
2022-10-28T22:11:03.975Z,17.03
2022-10-28T22:13:08.735Z,17.00
2022-10-28T22:15:13.712Z,17.00
2022-10-28T22:17:21.051Z,17.00
2022-10-28T22:19:26.025Z,17.01
2022-10-28T22:21:31.776Z,16.96
2022-10-28T22:23:36.857Z,16.95
2022-10-28T22:25:41.616Z,16.95
2022-10-28T22:27:46.802Z,16.94
2022-10-28T22:29:51.325Z,16.90
2022-10-28T22:31:56.076Z,16.89
2022-10-28T22:34:05.478Z,16.91
2022-10-28T22:36:12.320Z,16.91
2022-10-28T22:38:17.129Z,16.90
2022-10-28T22:40:21.903Z,16.92
2022-10-28T22:42:26.839Z,16.95
2022-10-28T22:44:31.569Z,16.96
2022-10-28T22:46:37.085Z,16.96
2022-10-28T22:48:41.897Z,16.95
2022-10-28T22:50:49.282Z,17.01
2022-10-28T22:52:54.642Z,17.04
2022-10-28T22:54:59.437Z,17.06
2022-10-28T22:57:04.159Z,17.05
2022-10-28T22:59:09.323Z,17.08
2022-10-28T23:01:16.905Z,17.09
2022-10-28T23:03:21.974Z,17.06
2022-10-28T23:05:26.950Z,17.07
2022-10-28T23:07:34.285Z,17.07
2022-10-28T23:09:39.028Z,17.05
2022-10-28T23:11:43.859Z,17.04
2022-10-28T23:13:48.988Z,16.97
2022-10-28T23:15:53.695Z,16.89
2022-10-28T23:17:58.931Z,16.87
2022-10-28T23:20:03.780Z,16.86
2022-10-28T23:22:08.490Z,16.83
2022-10-28T23:24:15.932Z,16.82
2022-10-28T23:26:20.671Z,16.80
2022-10-28T23:28:25.436Z,16.81
2022-10-28T23:30:30.160Z,16.79
2022-10-28T23:32:34.948Z,16.75
2022-10-28T23:34:39.693Z,16.70
2022-10-28T23:36:44.511Z,16.65
2022-10-28T23:38:49.190Z,16.62
2022-10-28T23:41:01.108Z,16.59
2022-10-28T23:43:05.859Z,16.57
2022-10-28T23:45:12.280Z,16.53
2022-10-28T23:47:17.198Z,16.50
2022-10-28T23:49:21.854Z,16.40
2022-10-28T23:51:26.567Z,16.37
2022-10-28T23:53:31.551Z,16.34
2022-10-28T23:55:36.250Z,16.30
2022-10-28T23:57:43.626Z,16.29
2022-10-28T23:59:48.358Z,16.33
